sensor_id;sensor_type;location;lat;lon;timestamp;pressure;altitude;pressure_sealevel;temperature;humidity
53719;BME280;39616;48.872;9.390;2022-07-29T00:02:25;98143.16;;;18.42;100.00
53719;BME280;39616;48.872;9.390;2022-07-29T00:04:55;98132.97;;;18.42;100.00
53719;BME280;39616;48.872;9.390;2022-07-29T00:07:26;98145.78;;;18.38;100.00
53719;BME280;39616;48.872;9.390;2022-07-29T00:09:56;98140.63;;;18.37;100.00
53719;BME280;39616;48.872;9.390;2022-07-29T00:12:27;98129.94;;;18.31;100.00
53719;BME280;39616;48.872;9.390;2022-07-29T00:14:57;98132.84;;;18.23;100.00
53719;BME280;39616;48.872;9.390;2022-07-29T00:17:27;98127.97;;;18.16;100.00
53719;BME280;39616;48.872;9.390;2022-07-29T00:19:58;98127.41;;;18.10;100.00
53719;BME280;39616;48.872;9.390;2022-07-29T00:22:28;98124.22;;;18.08;100.00
53719;BME280;39616;48.872;9.390;2022-07-29T00:25:01;98116.69;;;18.05;100.00
53719;BME280;39616;48.872;9.390;2022-07-29T00:27:32;98118.09;;;17.99;100.00
53719;BME280;39616;48.872;9.390;2022-07-29T00:30:03;98118.78;;;17.96;100.00
53719;BME280;39616;48.872;9.390;2022-07-29T00:32:34;98110.44;;;17.93;100.00
53719;BME280;39616;48.872;9.390;2022-07-29T00:35:05;98109.31;;;17.94;100.00
53719;BME280;39616;48.872;9.390;2022-07-29T00:37:54;98107.81;;;17.96;100.00
53719;BME280;39616;48.872;9.390;2022-07-29T00:40:24;98107.38;;;17.94;100.00
53719;BME280;39616;48.872;9.390;2022-07-29T00:42:55;98106.91;;;17.92;100.00
53719;BME280;39616;48.872;9.390;2022-07-29T00:45:25;98108.34;;;17.86;100.00
53719;BME280;39616;48.872;9.390;2022-07-29T00:47:56;98113.72;;;17.82;100.00
53719;BME280;39616;48.872;9.390;2022-07-29T00:50:26;98105.03;;;17.80;100.00
53719;BME280;39616;48.872;9.390;2022-07-29T00:52:57;98103.03;;;17.93;100.00
53719;BME280;39616;48.872;9.390;2022-07-29T00:55:28;98101.78;;;17.91;100.00
53719;BME280;39616;48.872;9.390;2022-07-29T00:57:59;98104.44;;;17.87;100.00
53719;BME280;39616;48.872;9.390;2022-07-29T01:00:30;98097.69;;;17.84;100.00
53719;BME280;39616;48.872;9.390;2022-07-29T01:03:00;98100.22;;;17.77;100.00
53719;BME280;39616;48.872;9.390;2022-07-29T01:05:31;98099.22;;;17.70;100.00
53719;BME280;39616;48.872;9.390;2022-07-29T01:08:02;98096.94;;;17.72;100.00
53719;BME280;39616;48.872;9.390;2022-07-29T01:10:33;98104.06;;;17.60;100.00
53719;BME280;39616;48.872;9.390;2022-07-29T01:13:08;98099.38;;;17.49;100.00
53719;BME280;39616;48.872;9.390;2022-07-29T01:15:45;98095.88;;;17.36;100.00
53719;BME280;39616;48.872;9.390;2022-07-29T01:18:24;98097.72;;;17.32;100.00
53719;BME280;39616;48.872;9.390;2022-07-29T01:21:20;98089.97;;;17.22;100.00
53719;BME280;39616;48.872;9.390;2022-07-29T01:26:46;98092.06;;;17.12;100.00
53719;BME280;39616;48.872;9.390;2022-07-29T01:29:28;98087.81;;;17.15;100.00
53719;BME280;39616;48.872;9.390;2022-07-29T01:32:12;98085.88;;;17.15;100.00
53719;BME280;39616;48.872;9.390;2022-07-29T01:34:50;98085.22;;;17.06;100.00
53719;BME280;39616;48.872;9.390;2022-07-29T01:37:43;98084.19;;;16.99;100.00
53719;BME280;39616;48.872;9.390;2022-07-29T01:40:29;98082.16;;;16.96;100.00
53719;BME280;39616;48.872;9.390;2022-07-29T01:43:07;98091.41;;;16.91;100.00
53719;BME280;39616;48.872;9.390;2022-07-29T01:45:43;98079.75;;;16.94;100.00
53719;BME280;39616;48.872;9.390;2022-07-29T01:48:16;98081.25;;;16.92;100.00
53719;BME280;39616;48.872;9.390;2022-07-29T01:50:51;98083.50;;;16.89;100.00
53719;BME280;39616;48.872;9.390;2022-07-29T01:53:31;98085.94;;;16.91;100.00
53719;BME280;39616;48.872;9.390;2022-07-29T01:56:03;98077.72;;;16.91;100.00
53719;BME280;39616;48.872;9.390;2022-07-29T01:58:36;98074.84;;;16.87;100.00
53719;BME280;39616;48.872;9.390;2022-07-29T02:01:10;98087.75;;;16.87;100.00
53719;BME280;39616;48.872;9.390;2022-07-29T02:03:44;98080.66;;;16.86;100.00
53719;BME280;39616;48.872;9.390;2022-07-29T02:06:17;98081.69;;;16.81;100.00
53719;BME280;39616;48.872;9.390;2022-07-29T02:08:51;98083.88;;;16.76;100.00
53719;BME280;39616;48.872;9.390;2022-07-29T02:11:22;98090.81;;;16.73;100.00
53719;BME280;39616;48.872;9.390;2022-07-29T02:13:54;98088.75;;;16.70;100.00
53719;BME280;39616;48.872;9.390;2022-07-29T02:16:28;98083.63;;;16.69;100.00
53719;BME280;39616;48.872;9.390;2022-07-29T02:19:01;98085.88;;;16.66;100.00
53719;BME280;39616;48.872;9.390;2022-07-29T02:21:33;98089.66;;;16.62;100.00
53719;BME280;39616;48.872;9.390;2022-07-29T02:24:06;98082.94;;;16.59;100.00
53719;BME280;39616;48.872;9.390;2022-07-29T02:26:38;98082.69;;;16.52;100.00
53719;BME280;39616;48.872;9.390;2022-07-29T02:29:11;98090.66;;;16.45;100.00
53719;BME280;39616;48.872;9.390;2022-07-29T02:31:44;98080.06;;;16.43;100.00
53719;BME280;39616;48.872;9.390;2022-07-29T02:34:18;98082.00;;;16.43;100.00
53719;BME280;39616;48.872;9.390;2022-07-29T02:36:49;98084.28;;;16.41;100.00
53719;BME280;39616;48.872;9.390;2022-07-29T02:39:22;98087.38;;;16.39;100.00
53719;BME280;39616;48.872;9.390;2022-07-29T02:42:02;98089.06;;;16.44;100.00
53719;BME280;39616;48.872;9.390;2022-07-29T02:44:34;98079.59;;;16.41;100.00
53719;BME280;39616;48.872;9.390;2022-07-29T02:47:16;98080.63;;;16.37;100.00
53719;BME280;39616;48.872;9.390;2022-07-29T02:52:37;98080.38;;;16.30;100.00
53719;BME280;39616;48.872;9.390;2022-07-29T02:58:40;98080.13;;;16.10;100.00
53719;BME280;39616;48.872;9.390;2022-07-29T03:01:15;98074.19;;;16.08;100.00
53719;BME280;39616;48.872;9.390;2022-07-29T03:03:46;98073.75;;;16.06;100.00
53719;BME280;39616;48.872;9.390;2022-07-29T03:06:21;98075.56;;;16.02;100.00
53719;BME280;39616;48.872;9.390;2022-07-29T03:08:53;98079.09;;;16.03;100.00
53719;BME280;39616;48.872;9.390;2022-07-29T03:11:24;98079.41;;;16.01;100.00
53719;BME280;39616;48.872;9.390;2022-07-29T03:13:56;98081.69;;;15.99;100.00
53719;BME280;39616;48.872;9.390;2022-07-29T03:16:27;98077.56;;;15.93;100.00
53719;BME280;39616;48.872;9.390;2022-07-29T03:18:59;98083.72;;;15.90;100.00
53719;BME280;39616;48.872;9.390;2022-07-29T03:21:31;98082.91;;;15.89;100.00
53719;BME280;39616;48.872;9.390;2022-07-29T03:24:01;98074.47;;;15.82;100.00
53719;BME280;39616;48.872;9.390;2022-07-29T03:26:32;98077.84;;;15.79;100.00
53719;BME280;39616;48.872;9.390;2022-07-29T03:29:02;98076.63;;;15.77;100.00
53719;BME280;39616;48.872;9.390;2022-07-29T03:31:33;98078.69;;;15.80;100.00
53719;BME280;39616;48.872;9.390;2022-07-29T03:34:06;98076.16;;;15.87;100.00
53719;BME280;39616;48.872;9.390;2022-07-29T03:36:36;98077.00;;;15.87;100.00
53719;BME280;39616;48.872;9.390;2022-07-29T03:39:08;98085.53;;;15.86;100.00
53719;BME280;39616;48.872;9.390;2022-07-29T03:41:40;98075.63;;;15.93;100.00
53719;BME280;39616;48.872;9.390;2022-07-29T03:44:15;98073.13;;;15.88;100.00
53719;BME280;39616;48.872;9.390;2022-07-29T03:46:48;98066.84;;;15.88;100.00
53719;BME280;39616;48.872;9.390;2022-07-29T03:49:21;98068.19;;;15.82;100.00
53719;BME280;39616;48.872;9.390;2022-07-29T03:51:52;98073.00;;;15.85;100.00
53719;BME280;39616;48.872;9.390;2022-07-29T03:54:23;98075.38;;;15.86;100.00
53719;BME280;39616;48.872;9.390;2022-07-29T03:56:54;98074.72;;;15.89;100.00
53719;BME280;39616;48.872;9.390;2022-07-29T03:59:26;98078.25;;;15.90;100.00
53719;BME280;39616;48.872;9.390;2022-07-29T04:01:56;98089.97;;;15.90;100.00
53719;BME280;39616;48.872;9.390;2022-07-29T04:04:28;98088.97;;;15.95;100.00
53719;BME280;39616;48.872;9.390;2022-07-29T04:06:58;98092.16;;;15.97;100.00
53719;BME280;39616;48.872;9.390;2022-07-29T04:09:29;98084.56;;;16.03;100.00
53719;BME280;39616;48.872;9.390;2022-07-29T04:12:00;98097.22;;;16.07;100.00
53719;BME280;39616;48.872;9.390;2022-07-29T04:14:31;98098.34;;;16.06;100.00
53719;BME280;39616;48.872;9.390;2022-07-29T04:17:03;98096.88;;;16.09;100.00
53719;BME280;39616;48.872;9.390;2022-07-29T04:19:33;98095.19;;;16.16;100.00
53719;BME280;39616;48.872;9.390;2022-07-29T04:22:04;98099.41;;;16.14;100.00
53719;BME280;39616;48.872;9.390;2022-07-29T04:24:34;98098.69;;;16.05;100.00
53719;BME280;39616;48.872;9.390;2022-07-29T04:27:05;98097.88;;;16.04;100.00
53719;BME280;39616;48.872;9.390;2022-07-29T04:29:35;98101.22;;;16.10;100.00
53719;BME280;39616;48.872;9.390;2022-07-29T04:32:05;98103.59;;;16.11;100.00
53719;BME280;39616;48.872;9.390;2022-07-29T04:34:36;98103.28;;;16.13;100.00
53719;BME280;39616;48.872;9.390;2022-07-29T04:37:06;98104.53;;;16.15;100.00
53719;BME280;39616;48.872;9.390;2022-07-29T04:39:37;98102.81;;;16.23;100.00
53719;BME280;39616;48.872;9.390;2022-07-29T04:42:07;98109.47;;;16.34;100.00
53719;BME280;39616;48.872;9.390;2022-07-29T04:44:37;98104.16;;;16.50;100.00
53719;BME280;39616;48.872;9.390;2022-07-29T04:47:08;98109.19;;;16.73;100.00
53719;BME280;39616;48.872;9.390;2022-07-29T04:49:39;98107.72;;;16.87;100.00
53719;BME280;39616;48.872;9.390;2022-07-29T04:52:09;98098.81;;;17.03;100.00
53719;BME280;39616;48.872;9.390;2022-07-29T04:54:39;98096.72;;;17.12;100.00
53719;BME280;39616;48.872;9.390;2022-07-29T04:57:09;98096.50;;;17.17;100.00
53719;BME280;39616;48.872;9.390;2022-07-29T04:59:40;98101.06;;;17.25;100.00
53719;BME280;39616;48.872;9.390;2022-07-29T05:02:10;98100.91;;;17.34;100.00
53719;BME280;39616;48.872;9.390;2022-07-29T05:04:40;98091.41;;;17.44;100.00
53719;BME280;39616;48.872;9.390;2022-07-29T05:07:11;98094.47;;;17.54;100.00
53719;BME280;39616;48.872;9.390;2022-07-29T05:09:41;98098.31;;;17.66;100.00
53719;BME280;39616;48.872;9.390;2022-07-29T05:12:11;98091.69;;;17.79;100.00
53719;BME280;39616;48.872;9.390;2022-07-29T05:14:42;98091.63;;;17.91;100.00
53719;BME280;39616;48.872;9.390;2022-07-29T05:17:12;98098.66;;;18.04;100.00
53719;BME280;39616;48.872;9.390;2022-07-29T05:19:43;98103.00;;;18.21;100.00
53719;BME280;39616;48.872;9.390;2022-07-29T05:22:13;98098.66;;;18.36;100.00
53719;BME280;39616;48.872;9.390;2022-07-29T05:24:46;98102.31;;;18.56;100.00
53719;BME280;39616;48.872;9.390;2022-07-29T05:27:16;98101.41;;;18.52;100.00
53719;BME280;39616;48.872;9.390;2022-07-29T05:29:47;98093.28;;;18.55;100.00
53719;BME280;39616;48.872;9.390;2022-07-29T05:32:17;98100.81;;;18.58;100.00
53719;BME280;39616;48.872;9.390;2022-07-29T05:34:47;98099.66;;;18.59;100.00
53719;BME280;39616;48.872;9.390;2022-07-29T05:37:20;98096.94;;;18.59;100.00
53719;BME280;39616;48.872;9.390;2022-07-29T05:39:51;98105.31;;;18.67;100.00
53719;BME280;39616;48.872;9.390;2022-07-29T05:42:21;98100.03;;;18.74;100.00
53719;BME280;39616;48.872;9.390;2022-07-29T05:44:52;98103.78;;;18.81;100.00
53719;BME280;39616;48.872;9.390;2022-07-29T05:47:23;98109.41;;;18.89;100.00
53719;BME280;39616;48.872;9.390;2022-07-29T05:49:54;98108.16;;;19.02;100.00
53719;BME280;39616;48.872;9.390;2022-07-29T05:52:24;98108.84;;;19.15;100.00
53719;BME280;39616;48.872;9.390;2022-07-29T05:54:55;98117.41;;;19.29;100.00
53719;BME280;39616;48.872;9.390;2022-07-29T05:57:25;98117.56;;;19.36;100.00
53719;BME280;39616;48.872;9.390;2022-07-29T05:59:56;98118.28;;;19.33;100.00
53719;BME280;39616;48.872;9.390;2022-07-29T06:02:26;98118.88;;;19.42;100.00
53719;BME280;39616;48.872;9.390;2022-07-29T06:04:56;98119.81;;;19.50;100.00
53719;BME280;39616;48.872;9.390;2022-07-29T06:07:26;98119.25;;;19.60;100.00
53719;BME280;39616;48.872;9.390;2022-07-29T06:09:57;98127.53;;;19.79;100.00
53719;BME280;39616;48.872;9.390;2022-07-29T06:12:27;98122.84;;;19.99;100.00
53719;BME280;39616;48.872;9.390;2022-07-29T06:14:57;98122.69;;;20.12;100.00
53719;BME280;39616;48.872;9.390;2022-07-29T06:17:28;98126.31;;;20.39;100.00
53719;BME280;39616;48.872;9.390;2022-07-29T06:19:58;98127.63;;;20.45;100.00
53719;BME280;39616;48.872;9.390;2022-07-29T06:22:28;98124.75;;;20.61;100.00
53719;BME280;39616;48.872;9.390;2022-07-29T06:25:00;98131.44;;;20.83;100.00
53719;BME280;39616;48.872;9.390;2022-07-29T06:27:31;98133.19;;;20.94;100.00
53719;BME280;39616;48.872;9.390;2022-07-29T06:30:02;98128.50;;;21.21;100.00
53719;BME280;39616;48.872;9.390;2022-07-29T06:32:33;98133.13;;;21.40;100.00
53719;BME280;39616;48.872;9.390;2022-07-29T06:35:06;98130.81;;;21.46;100.00
53719;BME280;39616;48.872;9.390;2022-07-29T06:37:36;98136.38;;;21.76;100.00
53719;BME280;39616;48.872;9.390;2022-07-29T06:40:07;98137.84;;;22.00;100.00
53719;BME280;39616;48.872;9.390;2022-07-29T06:42:56;98139.00;;;22.33;99.47
53719;BME280;39616;48.872;9.390;2022-07-29T06:45:26;98148.63;;;22.50;96.37
53719;BME280;39616;48.872;9.390;2022-07-29T06:47:56;98144.91;;;22.69;94.72
53719;BME280;39616;48.872;9.390;2022-07-29T06:50:27;98144.59;;;22.81;89.80
53719;BME280;39616;48.872;9.390;2022-07-29T06:52:57;98136.34;;;22.84;86.03
53719;BME280;39616;48.872;9.390;2022-07-29T06:55:27;98145.19;;;23.04;86.09
53719;BME280;39616;48.872;9.390;2022-07-29T06:57:58;98142.09;;;23.09;91.41
53719;BME280;39616;48.872;9.390;2022-07-29T07:00:28;98150.09;;;23.25;89.52
53719;BME280;39616;48.872;9.390;2022-07-29T07:02:58;98146.91;;;23.16;87.79
53719;BME280;39616;48.872;9.390;2022-07-29T07:05:29;98148.91;;;23.26;89.25
53719;BME280;39616;48.872;9.390;2022-07-29T07:07:59;98150.91;;;23.29;88.86
53719;BME280;39616;48.872;9.390;2022-07-29T07:10:29;98147.22;;;23.11;88.78
53719;BME280;39616;48.872;9.390;2022-07-29T07:13:00;98149.25;;;23.14;87.49
53719;BME280;39616;48.872;9.390;2022-07-29T07:15:33;98152.44;;;23.23;88.65
53719;BME280;39616;48.872;9.390;2022-07-29T07:18:06;98147.47;;;23.47;87.24
53719;BME280;39616;48.872;9.390;2022-07-29T07:20:37;98148.69;;;23.49;86.20
53719;BME280;39616;48.872;9.390;2022-07-29T07:23:07;98156.81;;;23.83;83.32
53719;BME280;39616;48.872;9.390;2022-07-29T07:25:38;98154.09;;;24.08;80.41
53719;BME280;39616;48.872;9.390;2022-07-29T07:28:08;98149.44;;;24.19;79.07
53719;BME280;39616;48.872;9.390;2022-07-29T07:30:39;98153.06;;;24.52;78.83
53719;BME280;39616;48.872;9.390;2022-07-29T07:33:09;98164.16;;;24.52;75.41
53719;BME280;39616;48.872;9.390;2022-07-29T07:35:41;98156.28;;;24.61;78.45
53719;BME280;39616;48.872;9.390;2022-07-29T07:38:11;98155.06;;;24.51;75.59
53719;BME280;39616;48.872;9.390;2022-07-29T07:40:41;98158.66;;;24.73;75.71
53719;BME280;39616;48.872;9.390;2022-07-29T07:43:12;98153.53;;;25.18;73.59
53719;BME280;39616;48.872;9.390;2022-07-29T07:45:42;98157.09;;;24.97;73.83
53719;BME280;39616;48.872;9.390;2022-07-29T07:48:13;98153.13;;;24.84;74.42
53719;BME280;39616;48.872;9.390;2022-07-29T07:50:43;98157.81;;;24.51;78.13
53719;BME280;39616;48.872;9.390;2022-07-29T07:53:14;98157.44;;;24.53;76.13
53719;BME280;39616;48.872;9.390;2022-07-29T07:55:44;98159.00;;;24.47;77.22
53719;BME280;39616;48.872;9.390;2022-07-29T07:58:15;98153.53;;;25.00;76.26
53719;BME280;39616;48.872;9.390;2022-07-29T08:00:45;98163.44;;;24.98;75.12
53719;BME280;39616;48.872;9.390;2022-07-29T08:03:15;98152.72;;;25.07;74.26
53719;BME280;39616;48.872;9.390;2022-07-29T08:05:46;98148.38;;;25.17;74.09
53719;BME280;39616;48.872;9.390;2022-07-29T08:08:17;98155.78;;;25.84;71.71
53719;BME280;39616;48.872;9.390;2022-07-29T08:10:48;98150.34;;;26.50;70.63
53719;BME280;39616;48.872;9.390;2022-07-29T08:13:26;98151.53;;;26.53;66.77
53719;BME280;39616;48.872;9.390;2022-07-29T08:16:00;98157.78;;;26.68;65.62
53719;BME280;39616;48.872;9.390;2022-07-29T08:18:31;98158.59;;;26.61;64.93
53719;BME280;39616;48.872;9.390;2022-07-29T08:21:02;98154.25;;;26.60;65.22
53719;BME280;39616;48.872;9.390;2022-07-29T08:23:32;98163.75;;;25.86;68.92
53719;BME280;39616;48.872;9.390;2022-07-29T08:26:09;98159.00;;;25.79;68.77
53719;BME280;39616;48.872;9.390;2022-07-29T08:28:43;98164.91;;;26.69;66.49
53719;BME280;39616;48.872;9.390;2022-07-29T08:31:20;98158.22;;;27.18;63.88
53719;BME280;39616;48.872;9.390;2022-07-29T08:33:50;98164.16;;;27.17;63.93
53719;BME280;39616;48.872;9.390;2022-07-29T08:36:20;98167.28;;;26.74;62.75
53719;BME280;39616;48.872;9.390;2022-07-29T08:38:51;98163.72;;;26.73;64.38
53719;BME280;39616;48.872;9.390;2022-07-29T08:41:22;98169.91;;;26.95;62.51
53719;BME280;39616;48.872;9.390;2022-07-29T08:43:53;98163.88;;;27.49;59.00
53719;BME280;39616;48.872;9.390;2022-07-29T08:46:23;98163.13;;;27.45;59.61
53719;BME280;39616;48.872;9.390;2022-07-29T08:48:55;98160.25;;;26.55;59.92
53719;BME280;39616;48.872;9.390;2022-07-29T08:51:26;98172.06;;;26.70;58.72
53719;BME280;39616;48.872;9.390;2022-07-29T08:53:57;98170.13;;;26.63;59.36
53719;BME280;39616;48.872;9.390;2022-07-29T08:56:28;98169.06;;;26.98;58.47
53719;BME280;39616;48.872;9.390;2022-07-29T08:59:02;98166.34;;;26.88;60.54
53719;BME280;39616;48.872;9.390;2022-07-29T09:01:33;98160.19;;;27.59;58.56
53719;BME280;39616;48.872;9.390;2022-07-29T09:04:10;98151.78;;;27.63;57.48
53719;BME280;39616;48.872;9.390;2022-07-29T09:06:47;98157.91;;;27.02;60.24
53719;BME280;39616;48.872;9.390;2022-07-29T09:09:19;98156.06;;;27.71;56.21
53719;BME280;39616;48.872;9.390;2022-07-29T09:11:50;98161.88;;;27.05;57.26
53719;BME280;39616;48.872;9.390;2022-07-29T09:14:20;98165.09;;;27.00;57.41
53719;BME280;39616;48.872;9.390;2022-07-29T09:16:55;98159.09;;;27.05;57.57
53719;BME280;39616;48.872;9.390;2022-07-29T09:19:27;98168.56;;;27.18;56.67
53719;BME280;39616;48.872;9.390;2022-07-29T09:21:59;98163.84;;;26.45;59.74
53719;BME280;39616;48.872;9.390;2022-07-29T09:27:25;98170.31;;;26.90;59.38
53719;BME280;39616;48.872;9.390;2022-07-29T09:30:03;98168.03;;;27.30;57.68
53719;BME280;39616;48.872;9.390;2022-07-29T09:32:34;98164.84;;;28.69;54.10
53719;BME280;39616;48.872;9.390;2022-07-29T09:35:27;98156.97;;;29.57;50.91
53719;BME280;39616;48.872;9.390;2022-07-29T09:37:57;98169.25;;;28.39;51.52
53719;BME280;39616;48.872;9.390;2022-07-29T09:40:28;98161.44;;;29.31;52.10
53719;BME280;39616;48.872;9.390;2022-07-29T09:43:09;98162.53;;;29.14;51.09
53719;BME280;39616;48.872;9.390;2022-07-29T09:45:40;98167.56;;;29.23;51.20
53719;BME280;39616;48.872;9.390;2022-07-29T09:50:45;98150.28;;;29.31;49.70
53719;BME280;39616;48.872;9.390;2022-07-29T09:53:35;98145.03;;;29.57;49.87
53719;BME280;39616;48.872;9.390;2022-07-29T09:56:06;98153.31;;;28.36;52.30
53719;BME280;39616;48.872;9.390;2022-07-29T09:58:37;98147.94;;;28.22;53.01
53719;BME280;39616;48.872;9.390;2022-07-29T10:01:07;98150.28;;;28.81;51.46
53719;BME280;39616;48.872;9.390;2022-07-29T10:03:51;98149.81;;;28.59;51.64
53719;BME280;39616;48.872;9.390;2022-07-29T10:06:22;98145.13;;;28.52;52.66
53719;BME280;39616;48.872;9.390;2022-07-29T10:08:53;98141.22;;;29.00;50.30
53719;BME280;39616;48.872;9.390;2022-07-29T10:11:23;98133.53;;;29.31;49.70
53719;BME280;39616;48.872;9.390;2022-07-29T10:13:54;98133.22;;;29.89;47.92
53719;BME280;39616;48.872;9.390;2022-07-29T10:16:24;98136.59;;;29.80;47.28
53719;BME280;39616;48.872;9.390;2022-07-29T10:18:55;98123.03;;;30.19;46.71
53719;BME280;39616;48.872;9.390;2022-07-29T10:21:26;98123.59;;;30.99;45.39
53719;BME280;39616;48.872;9.390;2022-07-29T10:23:56;98129.59;;;30.65;45.63
53719;BME280;39616;48.872;9.390;2022-07-29T10:26:28;98135.56;;;29.51;46.20
53719;BME280;39616;48.872;9.390;2022-07-29T10:29:00;98144.34;;;28.79;47.60
53719;BME280;39616;48.872;9.390;2022-07-29T10:31:44;98126.56;;;28.11;50.01
53719;BME280;39616;48.872;9.390;2022-07-29T10:40:49;98135.47;;;27.24;51.49
53719;BME280;39616;48.872;9.390;2022-07-29T10:43:29;98139.22;;;27.03;51.78
53719;BME280;39616;48.872;9.390;2022-07-29T10:46:03;98129.72;;;26.48;54.95
53719;BME280;39616;48.872;9.390;2022-07-29T10:48:34;98129.69;;;26.52;55.25
53719;BME280;39616;48.872;9.390;2022-07-29T10:51:05;98127.75;;;26.38;55.08
53719;BME280;39616;48.872;9.390;2022-07-29T10:53:47;98124.25;;;26.26;55.99
53719;BME280;39616;48.872;9.390;2022-07-29T10:56:27;98120.34;;;26.17;55.95
53719;BME280;39616;48.872;9.390;2022-07-29T10:59:30;98133.97;;;25.75;56.00
53719;BME280;39616;48.872;9.390;2022-07-29T11:02:01;98132.03;;;25.62;57.15
53719;BME280;39616;48.872;9.390;2022-07-29T11:07:14;98124.97;;;25.36;58.67
53719;BME280;39616;48.872;9.390;2022-07-29T11:12:46;98136.88;;;25.11;59.63
53719;BME280;39616;48.872;9.390;2022-07-29T11:15:19;98143.22;;;24.87;58.49
53719;BME280;39616;48.872;9.390;2022-07-29T11:31:51;98162.47;;;24.22;73.85
53719;BME280;39616;48.872;9.390;2022-07-29T11:34:28;98160.88;;;24.14;72.66
53719;BME280;39616;48.872;9.390;2022-07-29T11:47:33;98163.97;;;23.95;79.39
53719;BME280;39616;48.872;9.390;2022-07-29T11:50:06;98160.69;;;23.71;84.98
53719;BME280;39616;48.872;9.390;2022-07-29T11:52:39;98156.88;;;23.31;95.93
53719;BME280;39616;48.872;9.390;2022-07-29T11:55:18;98149.19;;;23.07;100.00
53719;BME280;39616;48.872;9.390;2022-07-29T11:57:54;98143.22;;;23.05;100.00
53719;BME280;39616;48.872;9.390;2022-07-29T12:00:27;98151.09;;;22.99;100.00
53719;BME280;39616;48.872;9.390;2022-07-29T12:03:01;98155.06;;;22.98;100.00
53719;BME280;39616;48.872;9.390;2022-07-29T12:05:41;98157.88;;;23.05;100.00
53719;BME280;39616;48.872;9.390;2022-07-29T12:08:19;98158.94;;;22.94;100.00
53719;BME280;39616;48.872;9.390;2022-07-29T12:10:51;98159.56;;;22.76;100.00
53719;BME280;39616;48.872;9.390;2022-07-29T12:13:22;98161.00;;;22.63;100.00
53719;BME280;39616;48.872;9.390;2022-07-29T12:15:56;98157.34;;;22.52;100.00
53719;BME280;39616;48.872;9.390;2022-07-29T12:18:27;98153.13;;;22.61;100.00
53719;BME280;39616;48.872;9.390;2022-07-29T12:20:58;98157.50;;;22.66;100.00
53719;BME280;39616;48.872;9.390;2022-07-29T12:23:30;98152.72;;;22.63;100.00
53719;BME280;39616;48.872;9.390;2022-07-29T12:26:05;98144.41;;;22.59;100.00
53719;BME280;39616;48.872;9.390;2022-07-29T12:28:39;98133.81;;;22.65;100.00
53719;BME280;39616;48.872;9.390;2022-07-29T12:31:13;98132.66;;;22.70;100.00
53719;BME280;39616;48.872;9.390;2022-07-29T12:33:52;98129.19;;;22.80;100.00
53719;BME280;39616;48.872;9.390;2022-07-29T12:36:23;98137.56;;;22.87;100.00
53719;BME280;39616;48.872;9.390;2022-07-29T12:38:54;98130.19;;;23.02;99.67
53719;BME280;39616;48.872;9.390;2022-07-29T12:41:24;98133.47;;;23.18;96.28
53719;BME280;39616;48.872;9.390;2022-07-29T12:43:55;98127.00;;;23.62;95.18
53719;BME280;39616;48.872;9.390;2022-07-29T12:46:25;98127.56;;;24.00;93.63
53719;BME280;39616;48.872;9.390;2022-07-29T12:48:56;98117.75;;;24.20;87.22
53719;BME280;39616;48.872;9.390;2022-07-29T12:51:35;98114.59;;;24.25;88.72
53719;BME280;39616;48.872;9.390;2022-07-29T12:54:10;98124.88;;;24.21;87.71
53719;BME280;39616;48.872;9.390;2022-07-29T12:56:42;98118.53;;;24.17;85.10
53719;BME280;39616;48.872;9.390;2022-07-29T12:59:20;98129.63;;;24.21;86.12
53719;BME280;39616;48.872;9.390;2022-07-29T13:01:51;98132.78;;;24.26;84.27
53719;BME280;39616;48.872;9.390;2022-07-29T13:04:30;98135.19;;;24.31;84.94
53719;BME280;39616;48.872;9.390;2022-07-29T13:07:03;98140.75;;;24.39;81.72
53719;BME280;39616;48.872;9.390;2022-07-29T13:09:38;98140.34;;;24.37;80.75
53719;BME280;39616;48.872;9.390;2022-07-29T13:12:11;98141.94;;;24.30;76.59
53719;BME280;39616;48.872;9.390;2022-07-29T13:14:49;98140.28;;;24.15;73.41
53719;BME280;39616;48.872;9.390;2022-07-29T13:17:22;98143.75;;;23.83;71.95
53719;BME280;39616;48.872;9.390;2022-07-29T13:20:08;98155.47;;;23.66;75.38
53719;BME280;39616;48.872;9.390;2022-07-29T13:22:42;98156.66;;;23.61;78.37
53719;BME280;39616;48.872;9.390;2022-07-29T13:25:13;98157.81;;;23.53;78.49
53719;BME280;39616;48.872;9.390;2022-07-29T13:27:43;98156.13;;;23.42;71.88
53719;BME280;39616;48.872;9.390;2022-07-29T13:30:15;98155.72;;;23.36;71.85
53719;BME280;39616;48.872;9.390;2022-07-29T13:32:46;98154.41;;;23.19;73.40
53719;BME280;39616;48.872;9.390;2022-07-29T13:35:17;98159.50;;;23.13;73.70
53719;BME280;39616;48.872;9.390;2022-07-29T13:37:48;98158.69;;;23.09;74.12
53719;BME280;39616;48.872;9.390;2022-07-29T13:40:18;98160.16;;;22.96;75.38
53719;BME280;39616;48.872;9.390;2022-07-29T13:42:48;98160.97;;;23.00;74.79
53719;BME280;39616;48.872;9.390;2022-07-29T13:45:19;98162.88;;;22.93;75.09
53719;BME280;39616;48.872;9.390;2022-07-29T13:47:49;98158.75;;;22.72;82.27
53719;BME280;39616;48.872;9.390;2022-07-29T13:50:19;98156.97;;;22.16;87.17
53719;BME280;39616;48.872;9.390;2022-07-29T13:52:50;98156.78;;;21.71;93.54
53719;BME280;39616;48.872;9.390;2022-07-29T13:55:21;98159.63;;;21.49;100.00
53719;BME280;39616;48.872;9.390;2022-07-29T13:57:51;98151.75;;;21.24;100.00
53719;BME280;39616;48.872;9.390;2022-07-29T14:00:22;98148.38;;;21.08;100.00
53719;BME280;39616;48.872;9.390;2022-07-29T14:02:53;98143.31;;;20.87;100.00
53719;BME280;39616;48.872;9.390;2022-07-29T14:05:24;98129.16;;;20.65;100.00
53719;BME280;39616;48.872;9.390;2022-07-29T14:07:54;98127.97;;;20.63;100.00
53719;BME280;39616;48.872;9.390;2022-07-29T14:10:25;98120.09;;;20.65;100.00
53719;BME280;39616;48.872;9.390;2022-07-29T14:12:56;98114.66;;;20.68;100.00
53719;BME280;39616;48.872;9.390;2022-07-29T14:15:26;98121.94;;;20.80;100.00